Algona, IA

3:35 PM CDT on March 29, 2015 (GMT -0500)
Forest City Municipal | | Change Station
CLOSE
Current Station
Airport
Location: Forest City,
Elevation: 1230 ft
Nearby Weather Stations
Active Advisory: Wind Advisory

Elev 1230 ft 43.23 °N, 93.62 °W | Updated 20 minutes ago

Clear
Clear
54 °F
Feels Like 54 °F
N
26
Wind Variable Wind from NW
Gusts 37 mph

Today
High -- | Low -- °F
--% Chance of Precip.
Yesterday
High -- | Low -- °F
Precip. -- in
7:04 AM 7:39 PM
Waxing Gibbous, 74% visible
Pressure 29.84 in
Visibility 10.0 miles
Clouds Clear
Dew Point 34 °F
Humidity 47%
Rainfall 0.03 in
Snow Depth Not available.
UV 6 out of 12
Pollen 7.30 out of 12
Air Quality Not available.
Flu Activity Not available.
METAR KFXY 292015Z AUTO 32023G32KT 10SM CLR 12/01 A2984 RMK AO2

More Conditions Fewer Conditions

Pressure 29.84 in
Visibility 10.0 miles
Clouds Clear
Dew Point 34 °F
Humidity 47%
Rainfall 0.03 in
Snow Depth Not available.
UV 6 out of 12
Pollen 7.30 out of 12
Air Quality Not available.
Flu Activity Not available.
METAR KFXY 292015Z AUTO 32023G32KT 10SM CLR 12/01 A2984 RMK AO2

More Conditions Fewer Conditions

10-Day Weather Forecast

Almanac

Astronomy

Mar. 29, 2015 Rise Set
Actual Time
Civil Twilight
Nautical Twilight
Astronomical Twilight
Moon
Length of Visible Light
Length of Day
Tomorrow will be .
, % of the Moon is Illuminated

Today's Extremes

State Highs State Lows

Community

WunderPhotos

Upload Photos

1,809,346 photos uploaded!

WunderBlogs® & News

Nearby

Air Quality

  Air Quality AQ Index Pollutant
Not available.

Snow Depth

Station Depth Elevation

Earthquake Activity

City Distance Mag. Time & Date
Minimum magnitude displayed is 2.5.

Coastal Water Temperatures

Place Temperature

Stations

Nearby Weather Stations

Station Location Temp. Windchill Dew Point Humidity Wind Precip. Elev Updated Type
                   
Wind Advisory
Statement as of 3:11 PM CDT on March 29, 2015

... Wind Advisory remains in effect until 6 PM CDT this evening...

* winds... becoming northwest and increasing to 25 to 35 mph...
with gusts up to 50 mph.

* Impacts... driving may be difficult at times... especially for
high profile and light weight vehicles. In addition...
unsecured outdoor objects will be blown around.

Precautionary/preparedness actions...

A Wind Advisory means that sustained winds of 30 mph are
expected. Winds this strong can make driving difficult...
especially for high profile vehicles. Use extra caution.